Spring City, Tennessee
Current Conditions -  °F | °C
As of 3:53 PM on Friday 24 Oct 2014 (Local Time) from KCSV Reporting Station
Clear Clear  
Wind Chill: 67°   Ceiling: Unl
Heat Index: 67°   Visibility: 10mi
Dew Point: 28°   Wind: 6mph
Humidity: 23%   Direction: 320°NW
Pressure: 30.06"   Gusts: NA
Location:  35.69°N, 84.86°W
Report Text: KCSV 241953Z AUTO 32005KT 10SM CLR 19/M02 A3006 RMK AO2 SLP172 T01941022
Loading
Personal Weather Stations






























Interactive Weather Map
Tropical Storm Tracking
New forecast layout! Learn more

10-Day Weather Forecast

Advertisements
Track Severe Weather on mobile